Time;durP1;ratioP1;P1;durP2;ratioP2;P2;SDS_P1;SDS_P2;PMS_P1;PMS_P2;Temp;Humidity;BMP_temperature;BMP_pressure;BME280_temperature;BME280_humidity;BME280_pressure;Samples;Min_cycle;Max_cycle;Signal;HPM_P1;HPM_P2
2023/02/06 00:01:47;;;;;;;6.85;6.07;;;-3.70;99.90;;;;;;5049584;28;20040;-35
2023/02/06 00:04:15;;;;;;;5.15;4.47;;;-3.80;99.90;;;;;;5048703;28;20072;-35
2023/02/06 00:06:43;;;;;;;5.13;4.68;;;-3.70;99.90;;;;;;5051961;28;20052;-35
2023/02/06 00:09:11;;;;;;;6.38;5.15;;;-3.60;99.90;;;;;;5030357;28;20362;-35
2023/02/06 00:11:38;;;;;;;7.57;4.70;;;-3.60;99.90;;;;;;5048672;28;20048;-35
2023/02/06 00:14:06;;;;;;;7.15;6.43;;;-3.50;99.90;;;;;;5047616;28;20089;-36
2023/02/06 00:16:34;;;;;;;4.72;4.30;;;-3.50;99.90;;;;;;5046258;28;20045;-35
2023/02/06 00:19:02;;;;;;;6.88;4.88;;;-3.50;99.90;;;;;;5050399;28;20057;-38
2023/02/06 00:21:30;;;;;;;6.68;5.68;;;-3.50;99.90;;;;;;5047445;28;20037;-35
2023/02/06 00:23:59;;;;;;;5.93;5.40;;;-3.50;99.90;;;;;;5049111;28;20049;-36
2023/02/06 00:26:27;;;;;;;7.55;6.68;;;-3.50;99.90;;;;;;5048291;28;20084;-36
2023/02/06 00:28:55;;;;;;;7.53;6.28;;;-3.40;99.90;;;;;;5048686;28;20051;-36
2023/02/06 00:31:24;;;;;;;6.88;5.90;;;-3.30;99.90;;;;;;5048345;28;20329;-35
2023/02/06 00:33:52;;;;;;;6.13;4.78;;;-3.30;99.90;;;;;;5030156;28;20044;-35
2023/02/06 00:36:20;;;;;;;8.15;5.60;;;-3.20;99.90;;;;;;5050069;28;20052;-35
2023/02/06 00:38:47;;;;;;;6.00;5.40;;;-3.10;99.90;;;;;;5048295;28;20068;-37
2023/02/06 00:41:15;;;;;;;6.53;5.90;;;-3.10;99.90;;;;;;5028537;28;20049;-35
2023/02/06 00:43:43;;;;;;;5.18;4.78;;;-3.00;99.90;;;;;;5045031;28;20071;-35
2023/02/06 00:46:10;;;;;;;6.68;6.18;;;-3.00;99.90;;;;;;5046571;28;20081;-36
2023/02/06 00:48:38;;;;;;;4.88;4.47;;;-3.10;99.90;;;;;;5031045;28;20044;-35
2023/02/06 00:51:06;;;;;;;6.15;4.38;;;-3.20;99.90;;;;;;5011281;28;20057;-35
2023/02/06 00:53:37;;;;;;;5.15;4.70;;;-3.30;99.90;;;;;;5007239;28;20046;-35
2023/02/06 00:56:04;;;;;;;6.35;4.57;;;-3.30;99.90;;;;;;5028731;28;20056;-35
2023/02/06 00:58:32;;;;;;;5.35;4.85;;;-3.20;99.90;;;;;;5011048;28;20422;-36
2023/02/06 01:00:59;;;;;;;13.95;5.38;;;-3.10;99.90;;;;;;5010509;28;20054;-35
2023/02/06 01:03:27;;;;;;;5.20;4.80;;;-3.10;99.90;;;;;;5028491;28;20080;-35
2023/02/06 01:05:54;;;;;;;12.60;5.65;;;-3.00;99.90;;;;;;5028755;28;20048;-35
2023/02/06 01:08:22;;;;;;;4.72;4.32;;;-3.00;99.90;;;;;;5027084;28;20414;-35
2023/02/06 01:10:50;;;;;;;5.13;4.57;;;-3.00;99.90;;;;;;5022468;28;20061;-35
2023/02/06 01:13:18;;;;;;;5.85;4.53;;;-2.90;99.90;;;;;;5028538;28;20052;-35
2023/02/06 01:15:47;;;;;;;4.97;4.57;;;-2.90;99.90;;;;;;5029552;28;20072;-35
2023/02/06 01:18:17;;;;;;;4.60;4.20;;;-2.80;99.90;;;;;;5029456;28;20052;-35
2023/02/06 01:20:45;;;;;;;5.20;4.43;;;-2.80;99.90;;;;;;5028522;28;20044;-35
2023/02/06 01:23:12;;;;;;;4.35;3.75;;;-2.90;99.90;;;;;;5029314;28;20049;-35
2023/02/06 01:25:40;;;;;;;6.35;3.53;;;-2.90;99.90;;;;;;5028227;28;20421;-36
2023/02/06 01:28:08;;;;;;;5.60;5.13;;;-2.90;99.90;;;;;;5029987;28;20064;-35
2023/02/06 01:30:36;;;;;;;7.50;6.45;;;-2.80;99.90;;;;;;5011600;28;20050;-35
2023/02/06 01:33:03;;;;;;;4.78;3.63;;;-2.80;99.90;;;;;;5028950;28;20064;-35
2023/02/06 01:35:30;;;;;;;6.30;4.95;;;-2.70;99.90;;;;;;5006293;28;20056;-37
2023/02/06 01:37:59;;;;;;;4.75;3.88;;;-2.70;99.90;;;;;;5009964;28;20049;-35
2023/02/06 01:40:27;;;;;;;4.82;4.43;;;-2.70;99.90;;;;;;5009330;28;20037;-35
2023/02/06 01:42:57;;;;;;;5.35;4.63;;;-2.60;99.90;;;;;;5029988;28;20056;-35
2023/02/06 01:45:42;;;;;;;5.50;4.82;;;-2.60;99.90;;;;;;5026659;28;20425;-35
2023/02/06 01:48:15;;;;;;;5.70;3.78;;;-2.50;99.90;;;;;;5026927;28;20429;-35
2023/02/06 01:50:48;;;;;;;5.50;5.00;;;-2.50;99.90;;;;;;5042587;28;20064;-35
2023/02/06 01:53:17;;;;;;;6.25;5.43;;;-2.40;99.90;;;;;;5040506;28;20417;-35
2023/02/06 01:55:46;;;;;;;6.72;6.07;;;-2.30;99.90;;;;;;5046762;28;20385;-35
2023/02/06 01:58:22;;;;;;;7.95;6.47;;;-2.30;99.90;;;;;;5028411;28;20041;-35
2023/02/06 02:00:50;;;;;;;7.18;6.25;;;-2.30;99.90;;;;;;5046521;28;20044;-35
2023/02/06 02:03:18;;;;;;;12.38;5.68;;;-2.30;99.90;;;;;;5048469;28;20053;-35
2023/02/06 02:05:47;;;;;;;6.72;6.07;;;-2.30;99.90;;;;;;5044751;28;20053;-35
2023/02/06 02:08:20;;;;;;;6.38;5.68;;;-2.20;99.90;;;;;;5045643;28;20504;-35
2023/02/06 02:10:48;;;;;;;5.82;5.32;;;-2.20;99.90;;;;;;5028792;28;20060;-35
2023/02/06 02:13:16;;;;;;;6.07;5.45;;;-2.20;99.90;;;;;;5030145;28;20048;-36
2023/02/06 02:16:01;;;;;;;9.35;6.80;;;-2.30;99.90;;;;;;5023045;28;20056;-35
2023/02/06 02:18:41;;;;;;;5.93;5.35;;;-2.30;99.90;;;;;;5047049;28;20060;-35
2023/02/06 02:21:40;;;;;;;6.30;5.70;;;-2.30;99.90;;;;;;5046757;28;20037;-35
2023/02/06 02:24:19;;;;;;;5.57;5.10;;;-2.20;99.90;;;;;;5026963;28;20056;-34
2023/02/06 02:27:03;;;;;;;6.78;6.18;;;-2.20;99.90;;;;;;5042909;28;20057;-35
2023/02/06 02:29:49;;;;;;;8.63;6.30;;;-2.20;99.90;;;;;;5023008;28;20080;-35
2023/02/06 02:32:31;;;;;;;6.95;6.35;;;-2.10;99.90;;;;;;5045595;28;20512;-36
2023/02/06 02:35:24;;;;;;;10.50;6.65;;;-2.10;99.90;;;;;;5048825;28;20052;-36
2023/02/06 02:38:01;;;;;;;5.68;4.53;;;-2.10;99.90;;;;;;5027248;28;20055;-39
2023/02/06 02:40:51;;;;;;;7.32;5.85;;;-2.10;99.90;;;;;;5041469;28;20060;-37
2023/02/06 02:43:44;;;;;;;6.22;5.63;;;-2.10;99.90;;;;;;5040560;28;20064;-37
2023/02/06 02:46:26;;;;;;;11.30;6.10;;;-2.10;99.90;;;;;;5043568;28;20033;-38
2023/02/06 02:49:00;;;;;;;7.05;6.07;;;-2.10;99.90;;;;;;5046251;28;20049;-39
2023/02/06 02:51:27;;;;;;;10.85;5.65;;;-2.10;99.90;;;;;;5046493;28;20045;-46
2023/02/06 02:53:56;;;;;;;8.05;7.32;;;-2.00;99.90;;;;;;5046726;28;20436;-37
2023/02/06 02:56:25;;;;;;;7.22;6.22;;;-2.00;99.90;;;;;;5026031;28;20068;-39
2023/02/06 02:59:06;;;;;;;8.27;6.75;;;-2.00;99.90;;;;;;5044853;28;20265;-38
2023/02/06 03:01:45;;;;;;;8.98;6.85;;;-2.00;99.90;;;;;;5046732;28;20505;-37
2023/02/06 03:04:19;;;;;;;6.43;5.85;;;-2.00;99.90;;;;;;5040924;28;20052;-38
2023/02/06 03:06:53;;;;;;;7.10;5.70;;;-1.90;99.90;;;;;;5027470;28;20421;-38
2023/02/06 03:09:34;;;;;;;10.05;6.05;;;-1.90;99.90;;;;;;5026094;28;20052;-39
2023/02/06 03:12:16;;;;;;;5.57;5.05;;;-1.90;99.90;;;;;;5040013;28;20406;-39
2023/02/06 03:15:02;;;;;;;8.65;6.63;;;-1.90;99.90;;;;;;5038575;28;20049;-38
2023/02/06 03:17:45;;;;;;;6.35;5.72;;;-1.90;99.90;;;;;;5045698;28;20048;-37
2023/02/06 03:20:15;;;;;;;12.30;6.70;;;-2.00;99.90;;;;;;5027844;28;20521;-39
2023/02/06 03:22:47;;;;;;;6.18;5.28;;;-2.00;99.90;;;;;;5044265;28;20458;-37
2023/02/06 03:25:22;;;;;;;7.28;6.25;;;-2.00;99.90;;;;;;5045041;28;20052;-39
2023/02/06 03:27:52;;;;;;;6.38;5.75;;;-1.90;99.90;;;;;;5046395;28;20095;-37
2023/02/06 03:30:22;;;;;;;6.13;5.50;;;-2.00;99.90;;;;;;5043772;28;20572;-37
2023/02/06 03:32:55;;;;;;;7.78;7.18;;;-2.00;99.90;;;;;;5045459;28;20044;-36
2023/02/06 03:35:30;;;;;;;7.80;6.70;;;-2.00;99.90;;;;;;5048737;28;20399;-39
2023/02/06 03:37:58;;;;;;;10.15;6.40;;;-2.00;99.90;;;;;;5046290;28;20071;-38
2023/02/06 03:40:27;;;;;;;6.70;5.35;;;-2.10;99.90;;;;;;5048350;28;20401;-35
2023/02/06 03:42:58;;;;;;;6.63;6.07;;;-2.10;99.90;;;;;;5049964;28;20398;-35
2023/02/06 03:45:27;;;;;;;6.75;6.03;;;-2.20;99.90;;;;;;5047438;28;20398;-36
2023/02/06 03:48:00;;;;;;;7.40;6.57;;;-2.30;99.90;;;;;;5049621;28;20053;-35
2023/02/06 03:50:32;;;;;;;6.88;5.88;;;-2.30;99.90;;;;;;5046769;28;20045;-36
2023/02/06 03:53:02;;;;;;;6.38;5.07;;;-2.30;99.90;;;;;;5047484;28;20273;-35
2023/02/06 03:55:30;;;;;;;6.85;6.18;;;-2.40;99.90;;;;;;5044476;28;20045;-37
2023/02/06 03:58:08;;;;;;;7.32;6.65;;;-2.40;99.90;;;;;;5041026;28;20065;-36
2023/02/06 04:00:38;;;;;;;7.70;7.00;;;-2.40;99.90;;;;;;5050426;28;20048;-36
2023/02/06 04:03:06;;;;;;;7.18;6.03;;;-2.50;99.90;;;;;;5044106;28;20056;-35
2023/02/06 04:05:34;;;;;;;7.22;6.35;;;-2.50;99.90;;;;;;5048889;28;20072;-35
2023/02/06 04:08:02;;;;;;;8.45;6.82;;;-2.50;99.90;;;;;;5048562;28;20069;-36
2023/02/06 04:10:29;;;;;;;10.10;8.02;;;-2.60;99.90;;;;;;5047003;28;20420;-36
2023/02/06 04:12:57;;;;;;;7.82;7.22;;;-2.60;99.90;;;;;;5049707;28;20056;-36
2023/02/06 04:15:24;;;;;;;7.93;6.35;;;-2.70;99.90;;;;;;5049102;28;20053;-36
2023/02/06 04:17:52;;;;;;;7.13;6.45;;;-2.80;99.90;;;;;;5046361;28;20504;-35
2023/02/06 04:20:28;;;;;;;8.63;7.63;;;-2.90;99.90;;;;;;5049776;28;20051;-36
2023/02/06 04:22:57;;;;;;;11.40;7.93;;;-2.90;99.90;;;;;;5045203;28;20049;-35
2023/02/06 04:25:25;;;;;;;7.18;6.68;;;-2.90;99.90;;;;;;5046061;28;20045;-35
2023/02/06 04:27:52;;;;;;;7.93;6.68;;;-2.90;99.90;;;;;;5047700;28;20046;-35
2023/02/06 04:30:20;;;;;;;7.82;7.03;;;-3.00;99.90;;;;;;5048362;28;20071;-35
2023/02/06 04:32:48;;;;;;;8.77;7.68;;;-3.00;99.90;;;;;;5048285;28;20087;-35
2023/02/06 04:35:15;;;;;;;7.65;6.75;;;-3.10;99.90;;;;;;5049080;28;20049;-35
2023/02/06 04:37:43;;;;;;;10.18;6.45;;;-3.10;99.90;;;;;;5047957;28;20041;-35
2023/02/06 04:40:11;;;;;;;8.75;6.78;;;-3.10;99.90;;;;;;5027811;28;20052;-35
2023/02/06 04:42:38;;;;;;;6.32;5.57;;;-3.20;99.90;;;;;;5048156;28;20444;-35
2023/02/06 04:45:06;;;;;;;9.00;7.65;;;-3.30;99.90;;;;;;5047522;28;20071;-36
2023/02/06 04:47:34;;;;;;;11.25;7.72;;;-3.50;99.90;;;;;;5047735;28;20064;-35
2023/02/06 04:50:03;;;;;;;9.63;7.43;;;-3.70;99.90;;;;;;5048507;28;20065;-35
2023/02/06 04:52:30;;;;;;;8.65;6.88;;;-3.60;99.90;;;;;;5030228;28;20528;-35
2023/02/06 04:54:58;;;;;;;7.50;6.78;;;-3.60;99.90;;;;;;5029498;28;20076;-35
2023/02/06 04:57:25;;;;;;;6.65;6.00;;;-3.70;99.90;;;;;;5047604;28;20056;-35
2023/02/06 04:59:53;;;;;;;7.28;6.47;;;-3.80;99.90;;;;;;5048535;28;20049;-36
2023/02/06 05:02:20;;;;;;;8.48;7.68;;;-4.00;99.90;;;;;;5045486;28;20048;-35
2023/02/06 05:04:48;;;;;;;5.70;5.10;;;-4.00;99.90;;;;;;5039151;28;20041;-35
2023/02/06 05:07:16;;;;;;;8.05;6.53;;;-4.10;99.90;;;;;;5046951;28;20059;-35
2023/02/06 05:09:43;;;;;;;7.07;6.43;;;-4.30;99.90;;;;;;5046699;28;20048;-35
2023/02/06 05:12:10;;;;;;;9.73;6.18;;;-4.40;99.90;;;;;;5045748;28;20167;-35
2023/02/06 05:14:40;;;;;;;9.18;7.47;;;-4.50;99.90;;;;;;5041689;28;20238;-35
2023/02/06 05:17:08;;;;;;;9.05;8.18;;;-4.50;99.90;;;;;;5047577;28;20044;-35
2023/02/06 05:19:35;;;;;;;7.30;6.60;;;-4.50;99.90;;;;;;5048429;28;20056;-36
2023/02/06 05:22:03;;;;;;;7.43;6.72;;;-4.90;99.90;;;;;;5047178;28;20053;-35
2023/02/06 05:24:30;;;;;;;15.65;7.53;;;-4.90;99.90;;;;;;5038788;28;20041;-35
2023/02/06 05:26:58;;;;;;;9.48;8.48;;;-4.90;99.90;;;;;;5046246;28;20068;-35
2023/02/06 05:29:25;;;;;;;6.72;5.45;;;-4.90;99.90;;;;;;5045675;28;20045;-35
2023/02/06 05:31:53;;;;;;;6.78;6.18;;;-5.10;99.90;;;;;;5047979;28;20054;-35
2023/02/06 05:34:21;;;;;;;8.10;6.22;;;-5.20;99.90;;;;;;5038610;28;20060;-35
2023/02/06 05:36:48;;;;;;;7.65;6.85;;;-5.20;99.90;;;;;;5046102;28;20052;-35
2023/02/06 05:39:16;;;;;;;9.35;8.10;;;-5.20;99.90;;;;;;5046676;28;20052;-35
2023/02/06 05:41:43;;;;;;;10.77;7.95;;;-5.20;99.90;;;;;;5047106;28;20045;-35
2023/02/06 05:44:11;;;;;;;7.53;6.75;;;-5.20;99.90;;;;;;5040775;28;20049;-35
2023/02/06 05:46:38;;;;;;;7.85;6.72;;;-5.10;99.90;;;;;;5047897;28;20048;-35
2023/02/06 05:49:06;;;;;;;8.45;7.63;;;-5.10;99.90;;;;;;5047769;28;20052;-35
2023/02/06 05:51:33;;;;;;;9.18;8.32;;;-5.10;99.90;;;;;;5047606;28;20045;-34
2023/02/06 05:54:01;;;;;;;9.52;8.65;;;-5.10;99.90;;;;;;5036659;28;20041;-35
2023/02/06 05:56:28;;;;;;;8.38;7.05;;;-5.20;99.90;;;;;;5047506;28;20397;-35
2023/02/06 05:58:56;;;;;;;7.15;6.45;;;-5.20;99.90;;;;;;5048217;28;20040;-35
2023/02/06 06:01:24;;;;;;;7.07;6.40;;;-5.20;99.90;;;;;;5046612;28;20615;-35
2023/02/06 06:03:52;;;;;;;7.13;6.43;;;-5.10;99.90;;;;;;5046972;28;20045;-35
2023/02/06 06:06:20;;;;;;;8.73;7.57;;;-5.10;99.90;;;;;;5046970;28;20417;-35
2023/02/06 06:08:47;;;;;;;12.57;8.50;;;-5.10;99.90;;;;;;5045207;28;20497;-35
2023/02/06 06:11:15;;;;;;;9.93;7.28;;;-5.10;99.90;;;;;;5045452;28;20124;-35
2023/02/06 06:13:43;;;;;;;7.00;6.30;;;-5.30;99.90;;;;;;5040358;28;20425;-35
2023/02/06 06:16:10;;;;;;;8.20;6.07;;;-5.60;99.90;;;;;;5047252;28;20060;-35
2023/02/06 06:18:38;;;;;;;9.23;6.13;;;-5.60;99.90;;;;;;5047311;28;20049;-35
2023/02/06 06:21:07;;;;;;;9.45;7.18;;;-5.50;99.90;;;;;;5046526;28;20056;-35
2023/02/06 06:23:34;;;;;;;11.25;7.78;;;-5.40;99.90;;;;;;5046307;28;20053;-35
2023/02/06 06:26:02;;;;;;;6.93;6.35;;;-5.30;99.90;;;;;;5045770;28;20120;-35
2023/02/06 06:28:30;;;;;;;8.65;7.28;;;-5.40;99.90;;;;;;5046416;28;20044;-35
2023/02/06 06:31:05;;;;;;;8.70;7.50;;;-5.60;99.90;;;;;;5047264;28;20048;-35
2023/02/06 06:33:33;;;;;;;11.48;9.13;;;-5.60;99.90;;;;;;5044057;28;20041;-35
2023/02/06 06:36:01;;;;;;;8.05;7.25;;;-5.50;99.90;;;;;;5046970;28;20057;-35
2023/02/06 06:38:28;;;;;;;12.98;7.97;;;-5.40;99.90;;;;;;5043248;28;20049;-34
2023/02/06 06:40:56;;;;;;;10.57;8.68;;;-5.40;99.90;;;;;;5045354;28;20417;-36
2023/02/06 06:43:24;;;;;;;8.20;7.38;;;-5.30;99.90;;;;;;5044680;28;20060;-35
2023/02/06 06:45:51;;;;;;;8.05;7.35;;;-5.50;99.90;;;;;;5045423;28;20405;-35
2023/02/06 06:48:19;;;;;;;6.40;5.70;;;-5.70;99.90;;;;;;5045930;28;20420;-35
2023/02/06 06:50:48;;;;;;;12.27;8.30;;;-5.90;99.90;;;;;;5045149;28;20053;-35
2023/02/06 06:53:16;;;;;;;10.68;8.80;;;-5.90;99.90;;;;;;5045601;28;20037;-35
2023/02/06 06:55:44;;;;;;;8.80;7.07;;;-5.80;99.90;;;;;;5047677;28;20080;-35
2023/02/06 06:58:11;;;;;;;6.82;5.68;;;-5.70;99.90;;;;;;5046134;28;20054;-36
2023/02/06 07:00:39;;;;;;;8.85;7.60;;;-5.70;99.90;;;;;;5046155;28;20049;-35
2023/02/06 07:03:07;;;;;;;7.95;6.47;;;-5.60;99.90;;;;;;5045486;28;20057;-35
2023/02/06 07:05:34;;;;;;;9.73;8.55;;;-5.50;99.90;;;;;;5045742;28;20045;-34
2023/02/06 07:08:02;;;;;;;6.93;6.20;;;-5.50;99.90;;;;;;5043209;28;20053;-35
2023/02/06 07:10:30;;;;;;;9.55;8.68;;;-5.40;99.90;;;;;;5030373;28;20064;-35
2023/02/06 07:12:57;;;;;;;13.98;5.78;;;-5.40;99.90;;;;;;5050006;28;20480;-35
2023/02/06 07:15:25;;;;;;;9.18;7.20;;;-5.40;99.90;;;;;;5051794;28;20423;-35
2023/02/06 07:17:53;;;;;;;8.15;7.07;;;-5.30;99.90;;;;;;5048377;28;20516;-36
2023/02/06 07:20:20;;;;;;;6.60;6.03;;;-5.20;99.90;;;;;;5049433;28;20053;-35
2023/02/06 07:22:49;;;;;;;8.35;7.68;;;-5.10;99.90;;;;;;5049049;28;20061;-35
2023/02/06 07:25:19;;;;;;;8.68;7.03;;;-5.20;99.90;;;;;;5049889;28;20404;-35
2023/02/06 07:27:46;;;;;;;9.23;6.70;;;-5.20;99.90;;;;;;5050478;28;20045;-35
2023/02/06 07:30:14;;;;;;;7.82;7.15;;;-5.00;99.90;;;;;;5047744;28;20045;-35
2023/02/06 07:32:41;;;;;;;7.38;6.63;;;-4.90;99.90;;;;;;5049164;28;20056;-35
2023/02/06 07:35:09;;;;;;;8.63;7.07;;;-4.80;99.90;;;;;;5051166;28;20060;-35
2023/02/06 07:37:37;;;;;;;10.88;8.32;;;-4.80;99.90;;;;;;5047172;28;20045;-35
2023/02/06 07:40:05;;;;;;;9.27;7.50;;;-4.60;99.90;;;;;;5048335;28;20053;-35
2023/02/06 07:42:32;;;;;;;7.03;6.38;;;-4.50;99.90;;;;;;5049020;28;20049;-35
2023/02/06 07:45:09;;;;;;;8.13;7.43;;;-4.40;99.90;;;;;;5030924;28;20045;-35
2023/02/06 07:47:36;;;;;;;11.48;9.75;;;-4.20;99.90;;;;;;5049710;28;20146;-35
2023/02/06 07:50:04;;;;;;;7.78;6.97;;;-4.00;99.90;;;;;;5042379;28;20090;-35
2023/02/06 07:52:32;;;;;;;9.45;8.65;;;-3.80;99.90;;;;;;5053779;28;20049;-34
2023/02/06 07:54:59;;;;;;;11.40;8.35;;;-3.60;99.90;;;;;;5046198;28;20055;-35
2023/02/06 07:57:27;;;;;;;9.43;8.52;;;-3.30;99.90;;;;;;5047433;28;20428;-35
2023/02/06 07:59:54;;;;;;;15.35;9.63;;;-3.20;99.90;;;;;;5042452;28;20068;-35
2023/02/06 08:02:22;;;;;;;13.50;12.10;;;-3.20;99.90;;;;;;5045631;28;20128;-35
2023/02/06 08:04:49;;;;;;;18.25;11.50;;;-3.20;99.90;;;;;;5044346;28;20052;-36
2023/02/06 08:07:17;;;;;;;16.73;9.73;;;-3.10;99.90;;;;;;5047566;28;20052;-35
2023/02/06 08:09:45;;;;;;;12.65;7.53;;;-3.10;99.90;;;;;;5042695;28;20060;-35
2023/02/06 08:12:12;;;;;;;15.80;10.40;;;-3.10;99.90;;;;;;5045366;28;20040;-37
2023/02/06 08:14:40;;;;;;;9.27;8.32;;;-3.00;99.90;;;;;;5049695;28;20056;-35
2023/02/06 08:17:07;;;;;;;11.52;8.05;;;-3.00;99.90;;;;;;5048872;28;20056;-35
2023/02/06 08:19:35;;;;;;;11.43;9.75;;;-3.00;99.90;;;;;;5050261;28;20056;-36
2023/02/06 08:22:02;;;;;;;7.57;6.88;;;-2.90;99.90;;;;;;5047018;28;20076;-35
2023/02/06 08:24:30;;;;;;;11.32;8.20;;;-2.90;99.90;;;;;;5046480;28;20059;-35
2023/02/06 08:26:58;;;;;;;7.05;6.22;;;-2.80;99.90;;;;;;5049193;28;20057;-35
2023/02/06 08:29:25;;;;;;;9.65;8.57;;;-2.80;99.90;;;;;;5049578;28;20501;-34
2023/02/06 08:31:53;;;;;;;7.25;6.40;;;-2.80;99.90;;;;;;5048767;28;20056;-35
2023/02/06 08:34:20;;;;;;;8.20;7.53;;;-2.70;99.90;;;;;;5048397;28;20040;-35
2023/02/06 08:36:48;;;;;;;7.28;6.60;;;-2.70;99.90;;;;;;5049220;28;20052;-35
2023/02/06 08:39:17;;;;;;;7.50;5.70;;;-2.60;99.90;;;;;;5047690;28;20051;-35
2023/02/06 08:41:44;;;;;;;6.38;5.75;;;-2.60;99.90;;;;;;5048978;28;20053;-35
2023/02/06 08:44:15;;;;;;;4.78;4.38;;;-2.50;99.90;;;;;;5046986;28;20069;-37
2023/02/06 08:46:44;;;;;;;13.02;7.80;;;-2.40;99.90;;;;;;5047320;28;20048;-35
2023/02/06 08:49:17;;;;;;;8.13;7.22;;;-2.30;99.90;;;;;;5048208;28;20679;-35
2023/02/06 08:51:45;;;;;;;8.73;6.97;;;-2.20;99.90;;;;;;5049614;28;20064;-35
2023/02/06 08:54:16;;;;;;;7.03;6.32;;;-2.10;99.90;;;;;;5045400;28;20045;-37
2023/02/06 08:56:45;;;;;;;11.17;8.00;;;-2.00;99.90;;;;;;5045705;28;20285;-36
2023/02/06 08:59:14;;;;;;;8.65;7.43;;;-2.00;99.90;;;;;;5047734;28;20311;-35
2023/02/06 09:01:44;;;;;;;6.55;5.97;;;-1.90;99.90;;;;;;5047717;28;20045;-35
2023/02/06 09:04:13;;;;;;;9.82;8.82;;;-1.90;99.90;;;;;;5047384;28;20377;-36
2023/02/06 09:06:42;;;;;;;8.20;7.38;;;-1.80;99.90;;;;;;5047334;28;20049;-35
2023/02/06 09:09:11;;;;;;;5.72;5.25;;;-1.80;99.90;;;;;;5027088;28;20041;-36
2023/02/06 09:11:39;;;;;;;5.38;4.70;;;-1.70;99.90;;;;;;5046456;28;20056;-35
2023/02/06 09:14:11;;;;;;;5.75;5.15;;;-1.80;99.90;;;;;;5045480;28;20049;-36
2023/02/06 09:16:39;;;;;;;5.82;4.97;;;-1.80;99.90;;;;;;5041468;28;20059;-35
2023/02/06 09:19:07;;;;;;;5.45;4.75;;;-1.70;99.90;;;;;;5048804;28;20053;-35
2023/02/06 09:21:35;;;;;;;8.15;7.40;;;-1.70;99.90;;;;;;5042213;28;20048;-35
2023/02/06 09:24:06;;;;;;;8.35;7.57;;;-1.60;99.90;;;;;;5044144;28;20052;-35
2023/02/06 09:26:37;;;;;;;6.50;5.90;;;-1.50;99.90;;;;;;5047961;28;20417;-36
2023/02/06 09:29:20;;;;;;;4.68;4.30;;;-1.40;99.90;;;;;;5048540;28;20071;-36
2023/02/06 09:31:47;;;;;;;5.38;4.88;;;-1.10;99.90;;;;;;5045349;28;20508;-36
2023/02/06 09:34:15;;;;;;;4.40;4.00;;;-0.70;99.90;;;;;;5046056;28;20041;-38
2023/02/06 09:36:42;;;;;;;4.65;4.35;;;0.00;99.90;;;;;;5047314;28;20535;-36
2023/02/06 09:39:10;;;;;;;5.35;5.03;;;-0.30;99.90;;;;;;5047738;28;20052;-37
2023/02/06 09:41:43;;;;;;;7.32;4.32;;;0.40;99.90;;;;;;5047561;28;20075;-37
2023/02/06 09:44:32;;;;;;;4.20;3.67;;;0.60;99.90;;;;;;5044960;28;20045;-39
2023/02/06 09:47:11;;;;;;;6.05;5.50;;;0.50;99.90;;;;;;5048508;28;20516;-38
2023/02/06 09:49:49;;;;;;;4.82;4.32;;;0.90;99.90;;;;;;5045994;28;20648;-39
2023/02/06 09:52:52;;;;;;;6.57;5.35;;;0.50;99.90;;;;;;5043539;28;20053;-40
2023/02/06 09:55:33;;;;;;;6.32;5.72;;;1.00;99.90;;;;;;5041332;28;20057;-39
2023/02/06 09:58:15;;;;;;;;;;;0.10;99.90;;;;;;5039931;28;20381;-42
2023/02/06 10:01:06;;;;;;;6.20;5.65;;;-0.10;99.90;;;;;;5046992;28;19925;-40
2023/02/06 10:03:58;;;;;;;4.82;4.43;;;-0.10;99.90;;;;;;5046846;28;20196;-37
2023/02/06 10:06:41;;;;;;;7.47;4.85;;;-0.70;99.90;;;;;;5047775;28;20049;-37
2023/02/06 10:09:14;;;;;;;5.70;5.20;;;-0.70;99.90;;;;;;5045877;28;20441;-40
2023/02/06 10:12:22;;;;;;;8.27;7.47;;;-0.80;99.90;;;;;;5038586;28;20070;-37
2023/02/06 10:14:57;;;;;;;8.43;6.63;;;-0.70;99.90;;;;;;5025349;28;20204;-36
2023/02/06 10:17:33;;;;;;;4.47;3.88;;;-0.60;99.90;;;;;;5042672;28;20036;-38
2023/02/06 10:20:12;;;;;;;5.10;3.50;;;-0.50;99.90;;;;;;5046931;28;20055;-36
2023/02/06 10:22:56;;;;;;;6.00;5.07;;;-0.40;99.90;;;;;;5020600;28;20057;-36
2023/02/06 10:25:34;;;;;;;4.70;4.28;;;-0.30;99.90;;;;;;5044283;28;20071;-36
2023/02/06 10:28:15;;;;;;;6.20;4.40;;;-0.50;99.90;;;;;;5044905;28;20068;-36
2023/02/06 10:31:04;;;;;;;7.22;6.53;;;-0.60;99.90;;;;;;5030238;28;20394;-36
2023/02/06 10:34:09;;;;;;;7.93;4.35;;;-0.60;99.90;;;;;;5044759;28;20072;-36
2023/02/06 10:37:07;;;;;;;5.78;5.25;;;-0.50;99.90;;;;;;5038660;28;20041;-35
2023/02/06 10:39:43;;;;;;;5.82;5.25;;;-0.60;99.90;;;;;;5006352;28;20041;-36
2023/02/06 10:42:41;;;;;;;6.90;6.22;;;-0.60;99.90;;;;;;5043610;28;20041;-36
2023/02/06 10:45:34;;;;;;;6.25;5.60;;;-0.60;99.90;;;;;;5041434;28;20041;-36
2023/02/06 10:48:28;;;;;;;6.00;4.93;;;-0.50;99.90;;;;;;5046727;28;20371;-35
2023/02/06 10:51:12;;;;;;;7.18;5.65;;;-0.20;99.90;;;;;;5048189;28;20057;-38
2023/02/06 10:54:05;;;;;;;9.23;6.35;;;-0.30;99.90;;;;;;5044602;28;20044;-36
2023/02/06 10:56:38;;;;;;;8.55;6.65;;;-0.30;99.90;;;;;;5038803;28;20037;-36
2023/02/06 10:59:23;;;;;;;6.20;5.63;;;-0.20;99.90;;;;;;5047211;28;20088;-36
2023/02/06 11:02:14;;;;;;;6.57;5.43;;;0.10;99.90;;;;;;5047279;28;20052;-35
2023/02/06 11:04:59;;;;;;;8.05;7.05;;;0.20;99.90;;;;;;5047004;28;20037;-36
2023/02/06 11:07:28;;;;;;;11.88;6.25;;;0.30;99.90;;;;;;5049050;28;20045;-36
2023/02/06 11:09:57;;;;;;;6.80;5.35;;;0.40;99.90;;;;;;5045444;28;20097;-37
2023/02/06 11:12:39;;;;;;;7.00;5.97;;;0.30;99.90;;;;;;5031474;28;20041;-36
2023/02/06 11:15:37;;;;;;;6.10;5.53;;;0.10;99.90;;;;;;5050456;28;20044;-36
2023/02/06 11:18:10;;;;;;;11.52;5.57;;;-0.10;99.90;;;;;;5045499;28;20053;-37
2023/02/06 11:20:42;;;;;;;5.13;4.72;;;-0.10;99.90;;;;;;5047410;28;20044;-36
2023/02/06 11:23:16;;;;;;;4.78;4.38;;;-0.10;99.90;;;;;;5031605;28;20052;-37
2023/02/06 11:25:45;;;;;;;5.55;4.55;;;-0.20;99.90;;;;;;5048517;28;20422;-36
2023/02/06 11:28:17;;;;;;;4.85;4.53;;;-0.20;99.90;;;;;;5049729;28;20472;-36
2023/02/06 11:30:57;;;;;;;4.85;4.40;;;-0.10;99.90;;;;;;5048292;28;20285;-38
2023/02/06 11:33:37;;;;;;;7.25;4.18;;;-0.30;99.90;;;;;;5048818;28;20060;-35
2023/02/06 11:36:06;;;;;;;4.25;3.80;;;-0.50;99.90;;;;;;5047704;28;20060;-35
2023/02/06 11:38:33;;;;;;;11.43;2.72;;;-0.30;99.90;;;;;;5047712;28;20395;-36
2023/02/06 11:41:15;;;;;;;3.85;3.40;;;-0.20;99.90;;;;;;5048435;28;20037;-35
2023/02/06 11:43:42;;;;;;;5.05;3.53;;;-0.30;99.90;;;;;;5049413;28;20068;-36
2023/02/06 11:46:19;;;;;;;5.25;4.47;;;-0.50;99.90;;;;;;5048135;28;20045;-36
2023/02/06 11:49:00;;;;;;;3.75;3.45;;;-0.40;99.90;;;;;;5048057;28;20057;-35
2023/02/06 11:51:50;;;;;;;3.57;3.27;;;-0.30;99.90;;;;;;5048757;28;20409;-36
2023/02/06 11:54:27;;;;;;;4.38;3.22;;;-0.30;99.90;;;;;;5040150;28;20048;-36
2023/02/06 11:57:19;;;;;;;7.45;6.05;;;-0.30;99.90;;;;;;5045929;28;20523;-36
2023/02/06 11:59:55;;;;;;;3.60;3.40;;;-0.30;99.90;;;;;;5047288;28;20060;-35
2023/02/06 12:02:30;;;;;;;4.60;4.13;;;-0.40;99.90;;;;;;5049343;28;20044;-35
2023/02/06 12:05:19;;;;;;;6.68;4.63;;;-0.40;99.90;;;;;;5044686;28;20413;-35
2023/02/06 12:08:05;;;;;;;4.38;4.00;;;-0.50;99.90;;;;;;5043778;28;20049;-36
2023/02/06 12:10:37;;;;;;;3.50;3.17;;;-0.50;99.90;;;;;;5043939;28;20048;-36
2023/02/06 12:13:13;;;;;;;4.82;4.43;;;-0.50;99.90;;;;;;5047900;28;20045;-37
2023/02/06 12:15:48;;;;;;;3.40;3.17;;;-0.50;99.90;;;;;;5043385;28;20068;-36
2023/02/06 12:18:31;;;;;;;7.03;5.25;;;-0.40;99.90;;;;;;5047971;28;20045;-36
2023/02/06 12:21:12;;;;;;;7.18;5.57;;;-0.40;99.90;;;;;;5047185;28;20536;-37
2023/02/06 12:23:56;;;;;;;5.97;4.82;;;-0.50;99.90;;;;;;5042711;28;20446;-38
2023/02/06 12:26:28;;;;;;;14.20;7.65;;;-0.40;99.90;;;;;;5045748;28;20048;-38
2023/02/06 12:29:08;;;;;;;6.40;5.00;;;-0.50;99.90;;;;;;5046542;28;20068;-37
2023/02/06 12:32:04;;;;;;;7.90;5.50;;;-0.60;99.90;;;;;;5047112;28;20053;-37
2023/02/06 12:34:55;;;;;;;7.47;5.55;;;-0.70;99.90;;;;;;5042017;28;20049;-38
2023/02/06 12:37:45;;;;;;;5.70;5.15;;;-0.60;99.90;;;;;;5041471;28;20443;-38
2023/02/06 12:40:56;;;;;;;7.10;5.63;;;-0.50;99.90;;;;;;5028211;28;20049;-37
2023/02/06 12:43:23;;;;;;;5.75;5.10;;;-0.60;99.90;;;;;;5031609;28;20434;-38
2023/02/06 12:46:10;;;;;;;5.82;4.55;;;-0.50;99.90;;;;;;5045614;28;20048;-37
2023/02/06 12:48:54;;;;;;;8.35;6.07;;;-0.50;99.90;;;;;;5045496;28;20052;-37
2023/02/06 12:51:26;;;;;;;5.88;4.55;;;-0.50;99.90;;;;;;5044478;28;20057;-37
2023/02/06 12:54:11;;;;;;;6.97;6.20;;;-0.70;99.90;;;;;;5044043;28;20049;-37
2023/02/06 12:56:50;;;;;;;6.85;4.78;;;-0.80;99.90;;;;;;5042944;28;20045;-37
2023/02/06 12:59:43;;;;;;;10.27;6.38;;;-0.70;99.90;;;;;;5045409;28;20053;-37
2023/02/06 13:02:42;;;;;;;5.10;4.55;;;-0.70;99.90;;;;;;5043899;28;20045;-37
2023/02/06 13:05:32;;;;;;;4.13;3.83;;;-0.70;99.90;;;;;;5045471;28;20041;-37
2023/02/06 13:08:05;;;;;;;11.40;8.23;;;-0.70;99.90;;;;;;5045727;28;20430;-37
2023/02/06 13:10:34;;;;;;;7.85;7.15;;;-0.70;99.90;;;;;;5044817;28;20045;-37
2023/02/06 13:13:03;;;;;;;7.55;5.78;;;-0.60;99.90;;;;;;5045764;28;20048;-37
2023/02/06 13:15:38;;;;;;;11.35;3.55;;;-0.50;99.90;;;;;;5046049;28;20053;-38